createdAt,value
2019-04-28T00:05:12.694Z,2.57
2019-04-28T00:07:38.530Z,2.40
2019-04-28T00:10:24.249Z,2.50
2019-04-28T00:12:51.109Z,2.60
2019-04-28T00:15:17.930Z,2.80
2019-04-28T00:17:43.762Z,2.77
2019-04-28T00:23:17.050Z,2.97
2019-04-28T00:26:02.779Z,2.20
2019-04-28T00:28:48.631Z,2.30
2019-04-28T00:31:14.614Z,2.57
2019-04-28T00:33:41.038Z,2.83
2019-04-28T00:36:08.216Z,3.00
2019-04-28T00:38:34.050Z,3.13
2019-04-28T00:40:59.894Z,3.47
2019-04-28T00:43:25.754Z,3.40
2019-04-28T00:45:51.677Z,3.47
2019-04-28T00:48:17.543Z,3.50
2019-04-28T00:50:43.765Z,4.10
2019-04-28T00:53:11.677Z,4.43
2019-04-28T00:55:38.887Z,4.50
2019-04-28T00:58:04.726Z,4.10
2019-04-28T01:03:04.289Z,4.40
2019-04-28T01:05:31.196Z,4.30
2019-04-28T01:07:58.005Z,4.10
2019-04-28T01:12:57.866Z,4.10
2019-04-28T01:18:21.795Z,5.73
2019-04-28T01:20:49.497Z,4.30
2019-04-28T01:23:15.519Z,4.63
2019-04-28T01:25:41.358Z,4.30
2019-04-28T01:28:07.183Z,4.50
2019-04-28T01:30:52.923Z,4.53
2019-04-28T01:33:40.538Z,4.67
2019-04-28T01:36:06.514Z,4.40
2019-04-28T01:38:32.334Z,4.50
2019-04-28T01:40:59.758Z,3.60
2019-04-28T01:43:25.928Z,4.43
2019-04-28T01:45:51.767Z,3.43
2019-04-28T01:48:17.637Z,4.67
2019-04-28T01:50:43.510Z,4.30
2019-04-28T01:53:09.755Z,3.73
2019-04-28T01:55:37.111Z,4.20
2019-04-28T01:58:03.047Z,4.00
2019-04-28T02:00:29.680Z,4.53
2019-04-28T02:02:56.770Z,3.20
2019-04-28T02:05:22.720Z,3.70
2019-04-28T02:07:50.467Z,3.30
2019-04-28T02:11:00.002Z,3.07
2019-04-28T02:13:25.705Z,2.50
2019-04-28T02:15:51.555Z,3.53
2019-04-28T02:18:17.393Z,2.93
2019-04-28T02:23:37.020Z,2.63
2019-04-28T02:26:03.056Z,2.40
2019-04-28T02:28:29.625Z,2.10
2019-04-28T02:31:16.528Z,3.00
2019-04-28T02:33:42.377Z,3.30
2019-04-28T02:36:09.730Z,2.53
2019-04-28T02:38:35.976Z,2.77
2019-04-28T02:41:01.828Z,2.50
2019-04-28T02:43:27.669Z,3.20
2019-04-28T02:46:35.156Z,2.80
2019-04-28T02:52:10.741Z,3.30
2019-04-28T02:54:56.794Z,2.23
2019-04-28T02:57:22.639Z,2.90
2019-04-28T02:59:50.839Z,2.43
2019-04-28T03:02:36.207Z,2.37
2019-04-28T03:05:43.694Z,2.03
2019-04-28T03:08:11.120Z,2.63
2019-04-28T03:10:37.382Z,1.80
2019-04-28T03:13:03.318Z,2.90
2019-04-28T03:15:30.275Z,1.90
2019-04-28T03:17:56.985Z,2.10
2019-04-28T03:20:22.832Z,1.77
2019-04-28T03:22:51.039Z,2.23
2019-04-28T03:25:36.383Z,2.70
2019-04-28T03:28:22.406Z,2.73
2019-04-28T03:31:40.538Z,2.50
2019-04-28T03:33:41.942Z,2.37
2019-04-28T03:36:08.732Z,2.00
2019-04-28T03:38:31.574Z,1.80
2019-04-28T03:40:57.414Z,2.80
2019-04-28T03:43:23.426Z,2.47
2019-04-28T03:48:36.669Z,2.67
2019-04-28T03:51:02.725Z,2.93
2019-04-28T03:53:31.037Z,3.00
2019-04-28T03:55:56.338Z,2.83
2019-04-28T03:58:24.307Z,2.77
2019-04-28T04:00:50.725Z,2.90
2019-04-28T04:03:20.642Z,2.20
2019-04-28T04:05:45.433Z,2.70
2019-04-28T04:08:31.271Z,2.50
2019-04-28T04:11:16.963Z,2.60
2019-04-28T04:14:02.666Z,2.07
2019-04-28T04:16:50.246Z,3.20
2019-04-28T04:22:03.494Z,1.93
2019-04-28T04:24:30.656Z,2.10
2019-04-28T04:26:57.085Z,2.07
2019-04-28T04:29:22.923Z,2.03
2019-04-28T04:31:51.065Z,2.17
2019-04-28T04:34:16.537Z,2.27
2019-04-28T04:36:42.384Z,1.40
2019-04-28T04:39:10.743Z,2.13
2019-04-28T04:41:35.963Z,2.00
2019-04-28T04:44:01.825Z,2.13
2019-04-28T04:49:34.895Z,2.20
2019-04-28T04:52:00.772Z,2.30
2019-04-28T04:54:26.621Z,2.53
2019-04-28T04:56:52.457Z,2.20
2019-04-28T04:59:20.231Z,1.97
2019-04-28T05:07:10.889Z,1.67
2019-04-28T05:09:39.510Z,1.30
2019-04-28T05:12:06.029Z,1.70
2019-04-28T05:14:31.879Z,1.87
2019-04-28T05:16:57.699Z,1.47
2019-04-28T05:19:23.549Z,1.40
2019-04-28T05:21:49.830Z,1.40
2019-04-28T05:24:37.025Z,1.47
2019-04-28T05:29:51.353Z,1.23
2019-04-28T05:32:17.968Z,1.10
2019-04-28T05:34:46.630Z,1.50
2019-04-28T05:37:11.546Z,1.17
2019-04-28T05:39:38.601Z,1.20
2019-04-28T05:42:05.241Z,1.27
2019-04-28T05:44:32.067Z,1.40
2019-04-28T05:46:59.543Z,1.47
2019-04-28T05:49:46.442Z,1.10
2019-04-28T05:52:32.278Z,1.40
2019-04-28T05:57:55.149Z,1.30
2019-04-28T06:05:31.962Z,1.20
2019-04-28T06:08:20.209Z,1.10
2019-04-28T06:10:46.170Z,1.07
2019-04-28T06:13:12.013Z,1.10
2019-04-28T06:15:39.567Z,1.10
2019-04-28T06:18:05.618Z,1.20
2019-04-28T06:20:31.455Z,1.10
2019-04-28T06:22:57.305Z,1.80
2019-04-28T06:25:23.169Z,1.10
2019-04-28T06:27:49.033Z,1.30
2019-04-28T06:30:14.980Z,1.10
2019-04-28T06:32:40.938Z,2.03
2019-04-28T06:35:06.789Z,1.00
2019-04-28T06:37:32.647Z,1.20
2019-04-28T06:39:58.496Z,1.30
2019-04-28T06:42:24.346Z,1.20
2019-04-28T06:44:50.177Z,1.20
2019-04-28T06:47:16.897Z,1.40
2019-04-28T06:49:43.763Z,1.00
2019-04-28T06:52:09.604Z,1.33
2019-04-28T06:54:35.460Z,1.20
2019-04-28T06:57:01.296Z,1.20
2019-04-28T06:59:27.146Z,1.03
2019-04-28T07:01:52.993Z,1.47
2019-04-28T07:04:18.829Z,1.20
2019-04-28T07:06:44.654Z,1.90
2019-04-28T07:09:10.527Z,1.40
2019-04-28T07:11:36.361Z,2.07
2019-04-28T07:14:02.319Z,2.43
2019-04-28T07:16:28.151Z,2.30
2019-04-28T07:18:53.982Z,1.60
2019-04-28T07:21:39.725Z,1.60
2019-04-28T07:24:05.654Z,1.97
2019-04-28T07:26:31.596Z,1.30
2019-04-28T07:28:57.432Z,1.97
2019-04-28T07:33:56.885Z,1.90
2019-04-28T07:36:22.838Z,1.93
2019-04-28T07:38:48.668Z,1.77
2019-04-28T07:41:14.534Z,1.23
2019-04-28T07:43:40.368Z,1.20
2019-04-28T07:46:06.219Z,1.50
2019-04-28T07:48:52.460Z,1.23
2019-04-28T07:56:29.222Z,1.20
2019-04-28T07:58:55.090Z,1.30
2019-04-28T08:01:21.033Z,1.20
2019-04-28T08:03:49.617Z,1.80
2019-04-28T08:06:14.652Z,2.87
2019-04-28T08:08:40.506Z,1.50
2019-04-28T08:11:06.354Z,1.60
2019-04-28T08:13:32.205Z,1.57
2019-04-28T08:15:58.048Z,1.77
2019-04-28T08:18:23.893Z,1.97
2019-04-28T08:20:49.942Z,2.10
2019-04-28T08:23:15.784Z,1.50
2019-04-28T08:25:41.632Z,2.07
2019-04-28T08:28:07.481Z,1.43
2019-04-28T08:34:01.846Z,1.33
2019-04-28T08:36:18.331Z,1.90
2019-04-28T08:38:44.271Z,1.50
2019-04-28T08:41:10.130Z,2.60
2019-04-28T08:43:36.099Z,1.57
2019-04-28T08:46:01.933Z,1.87
2019-04-28T08:48:27.767Z,1.73
2019-04-28T08:50:53.692Z,4.57
2019-04-28T08:53:19.574Z,3.00
2019-04-28T08:55:45.391Z,5.43
2019-04-28T08:58:11.274Z,25.13
2019-04-28T09:00:37.112Z,15.10
2019-04-28T09:03:03.648Z,5.63
2019-04-28T09:05:49.414Z,1.73
2019-04-28T09:08:15.259Z,2.20
2019-04-28T09:10:41.529Z,1.90
2019-04-28T09:13:07.550Z,2.10
2019-04-28T09:15:33.436Z,2.03
2019-04-28T09:17:59.278Z,1.93
2019-04-28T09:20:25.147Z,1.53
2019-04-28T09:22:50.976Z,1.70
2019-04-28T09:25:16.857Z,1.43
2019-04-28T09:27:42.704Z,2.17
2019-04-28T09:30:08.744Z,3.10
2019-04-28T09:32:34.565Z,2.40
2019-04-28T09:35:00.427Z,2.20
2019-04-28T09:37:26.551Z,2.30
2019-04-28T09:40:12.328Z,2.60
2019-04-28T09:45:45.411Z,2.17
2019-04-28T09:48:31.133Z,2.20
2019-04-28T09:50:57.016Z,2.37
2019-04-28T09:53:22.864Z,2.17
2019-04-28T09:55:48.716Z,2.00
2019-04-28T09:58:14.561Z,2.33
2019-04-28T10:00:40.417Z,1.70
2019-04-28T10:03:06.374Z,2.60
2019-04-28T10:05:32.252Z,2.50
2019-04-28T10:07:58.082Z,3.10
2019-04-28T10:10:23.953Z,3.37
2019-04-28T10:12:49.911Z,2.80
2019-04-28T10:15:15.899Z,2.27
2019-04-28T10:17:41.773Z,2.97
2019-04-28T10:20:49.256Z,2.67
2019-04-28T10:23:15.085Z,2.80
2019-04-28T10:25:41.035Z,2.30
2019-04-28T10:28:06.881Z,2.93
2019-04-28T10:30:32.843Z,2.13
2019-04-28T10:32:58.675Z,3.50
2019-04-28T10:35:24.643Z,2.27
2019-04-28T10:37:50.470Z,2.20
2019-04-28T10:40:57.982Z,1.90
2019-04-28T10:43:23.895Z,3.43
2019-04-28T10:46:31.374Z,2.13
2019-04-28T10:48:57.354Z,3.00
2019-04-28T10:51:23.217Z,2.90
2019-04-28T10:53:49.057Z,3.73
2019-04-28T10:56:14.898Z,3.00
2019-04-28T11:01:14.420Z,2.40
2019-04-28T11:06:34.162Z,3.00
2019-04-28T11:09:39.762Z,2.70
2019-04-28T11:12:45.381Z,3.10
2019-04-28T11:15:52.872Z,2.77
2019-04-28T11:20:52.510Z,3.20
2019-04-28T11:23:18.459Z,2.70
2019-04-28T11:25:44.397Z,3.90
2019-04-28T11:28:10.392Z,3.03
2019-04-28T11:30:56.105Z,3.40
2019-04-28T11:33:44.274Z,3.10
2019-04-28T11:38:59.377Z,3.50
2019-04-28T11:41:25.241Z,3.43
2019-04-28T11:43:51.111Z,2.93
2019-04-28T11:49:25.263Z,3.17
2019-04-28T11:52:05.214Z,3.53
2019-04-28T11:54:31.100Z,3.30
2019-04-28T11:56:56.969Z,4.67
2019-04-28T11:59:22.819Z,4.27
2019-04-28T12:01:48.650Z,4.00
2019-04-28T12:07:21.749Z,5.30
2019-04-28T12:10:07.470Z,5.20
2019-04-28T12:15:40.566Z,5.40
2019-04-28T12:18:26.299Z,3.63
2019-04-28T12:20:52.264Z,3.53
2019-04-28T12:23:18.104Z,4.20
2019-04-28T12:25:43.939Z,5.57
2019-04-28T12:28:09.793Z,4.00
2019-04-28T12:30:35.638Z,4.70
2019-04-28T12:33:01.479Z,4.93
2019-04-28T12:35:27.344Z,4.30
2019-04-28T12:37:53.183Z,4.90
2019-04-28T12:40:19.024Z,4.97
2019-04-28T12:42:44.888Z,3.90
2019-04-28T12:45:10.832Z,3.83
2019-04-28T12:47:36.819Z,5.10
2019-04-28T12:50:42.400Z,4.47
2019-04-28T12:53:23.505Z,3.70
2019-04-28T12:56:03.111Z,4.77
2019-04-28T12:58:29.001Z,4.20
2019-04-28T13:01:34.583Z,3.97
2019-04-28T13:04:20.394Z,3.87
2019-04-28T13:07:06.117Z,4.47
2019-04-28T13:09:31.972Z,3.50
2019-04-28T13:12:17.678Z,3.60
2019-04-28T13:15:04.109Z,4.10
2019-04-28T13:17:49.825Z,3.53
2019-04-28T13:20:15.768Z,3.80
2019-04-28T13:22:41.657Z,3.40
2019-04-28T13:25:07.632Z,2.87
2019-04-28T13:27:33.487Z,3.80
2019-04-28T13:29:59.463Z,3.53
2019-04-28T13:32:45.195Z,3.90
2019-04-28T13:35:11.191Z,3.63
2019-04-28T13:37:37.065Z,3.37
2019-04-28T13:40:44.532Z,3.97
2019-04-28T13:43:30.272Z,3.30
2019-04-28T13:45:56.204Z,3.50
2019-04-28T13:48:22.010Z,3.70
2019-04-28T13:50:49.023Z,2.70
2019-04-28T13:53:15.630Z,2.40
2019-04-28T13:56:01.365Z,3.53
2019-04-28T14:04:48.319Z,3.13
2019-04-28T14:07:14.220Z,2.83
2019-04-28T14:09:40.060Z,2.50
2019-04-28T14:12:06.088Z,4.17
2019-04-28T14:14:51.841Z,2.57
2019-04-28T14:17:17.769Z,2.80
2019-04-28T14:19:43.636Z,2.80
2019-04-28T14:22:09.572Z,3.13
2019-04-28T14:24:35.486Z,3.40
2019-04-28T14:27:01.281Z,3.37
2019-04-28T14:29:27.145Z,2.97
2019-04-28T14:31:53.024Z,3.00
2019-04-28T14:34:18.839Z,2.30
2019-04-28T14:36:44.653Z,3.47
2019-04-28T14:39:10.728Z,3.83
2019-04-28T14:41:56.452Z,3.03
2019-04-28T14:44:22.349Z,3.40
2019-04-28T14:46:48.157Z,3.73
2019-04-28T14:49:14.002Z,2.80
2019-04-28T14:51:39.869Z,3.03
2019-04-28T14:54:05.731Z,3.63
2019-04-28T14:56:31.628Z,3.50
2019-04-28T14:58:57.522Z,2.93
2019-04-28T15:01:43.254Z,3.23
2019-04-28T15:04:48.890Z,3.07
2019-04-28T15:07:34.654Z,3.27
2019-04-28T15:10:40.286Z,3.60
2019-04-28T15:13:26.421Z,3.70
2019-04-28T15:15:52.271Z,2.97
2019-04-28T15:18:18.174Z,2.50
2019-04-28T15:20:44.204Z,3.60
2019-04-28T15:23:10.020Z,3.10
2019-04-28T15:25:35.886Z,3.10
2019-04-28T15:28:01.713Z,2.70
2019-04-28T15:30:27.525Z,2.97
2019-04-28T15:32:53.377Z,3.10
2019-04-28T15:35:19.208Z,4.27
2019-04-28T15:37:45.071Z,2.50
2019-04-28T15:40:52.567Z,2.53
2019-04-28T15:43:18.414Z,2.77
2019-04-28T15:45:44.284Z,2.53
2019-04-28T15:48:10.132Z,2.47
2019-04-28T15:50:35.970Z,2.27
2019-04-28T15:53:13.631Z,2.80
2019-04-28T15:58:38.358Z,2.27
2019-04-28T16:01:04.456Z,2.57
2019-04-28T16:03:30.395Z,2.63
2019-04-28T16:05:56.223Z,3.17
2019-04-28T16:08:22.085Z,2.57
2019-04-28T16:10:47.921Z,3.00
2019-04-28T16:13:13.803Z,2.67
2019-04-28T16:15:39.667Z,3.70
2019-04-28T16:18:05.544Z,2.97
2019-04-28T16:20:31.387Z,3.20
2019-04-28T16:22:57.249Z,3.70
2019-04-28T16:25:23.093Z,3.33
2019-04-28T16:27:48.938Z,3.33
2019-04-28T16:30:14.920Z,4.13
2019-04-28T16:32:40.770Z,3.80
2019-04-28T16:35:06.621Z,4.00
2019-04-28T16:37:38.834Z,4.30
2019-04-28T16:40:00.243Z,2.93
2019-04-28T16:42:46.553Z,3.77
2019-04-28T16:45:13.451Z,5.80
2019-04-28T16:47:59.164Z,3.33
2019-04-28T16:50:25.025Z,3.80
2019-04-28T16:52:50.887Z,3.37
2019-04-28T16:55:36.640Z,3.83
2019-04-28T16:58:22.369Z,3.43
2019-04-28T17:01:08.128Z,3.53
2019-04-28T17:06:41.208Z,2.60
2019-04-28T17:09:27.228Z,3.67
2019-04-28T17:11:53.216Z,2.73
2019-04-28T17:17:47.270Z,2.63
2019-04-28T17:20:33.005Z,2.67
2019-04-28T17:23:18.768Z,2.93
2019-04-28T17:25:44.662Z,3.40
2019-04-28T17:28:10.533Z,2.87
2019-04-28T17:30:36.377Z,2.80
2019-04-28T17:33:02.239Z,4.40
2019-04-28T17:35:28.242Z,4.20
2019-04-28T17:38:06.013Z,4.30
2019-04-28T17:40:42.295Z,4.20
2019-04-28T17:43:28.020Z,2.90
2019-04-28T17:46:13.762Z,4.57
2019-04-28T17:49:00.290Z,4.23
2019-04-28T17:51:26.386Z,4.17
2019-04-28T17:53:52.251Z,3.37
2019-04-28T17:56:18.231Z,2.83
2019-04-28T17:58:44.273Z,4.03
2019-04-28T18:01:49.889Z,3.20
2019-04-28T18:04:35.738Z,2.43
2019-04-28T18:09:36.594Z,2.80
2019-04-28T18:12:02.570Z,2.90
2019-04-28T18:14:28.432Z,3.30
2019-04-28T18:17:14.176Z,4.10
2019-04-28T18:19:59.991Z,3.43
2019-04-28T18:22:45.750Z,3.60
2019-04-28T18:25:31.523Z,3.50
2019-04-28T18:28:17.227Z,3.60
2019-04-28T18:31:22.860Z,4.17
2019-04-28T18:34:08.586Z,3.43
2019-04-28T18:40:07.708Z,3.60
2019-04-28T18:42:53.465Z,3.60
2019-04-28T18:45:19.535Z,4.17
2019-04-28T18:47:45.435Z,3.77
2019-04-28T18:50:11.515Z,4.03
2019-04-28T18:52:37.483Z,4.93
2019-04-28T18:55:44.983Z,3.40
2019-04-28T18:58:10.982Z,4.77
2019-04-28T19:03:44.117Z,3.43
2019-04-28T19:06:29.967Z,4.20
2019-04-28T19:09:15.731Z,3.47
2019-04-28T19:15:09.449Z,3.20
2019-04-28T19:20:22.727Z,4.80
2019-04-28T19:22:48.573Z,4.73
2019-04-28T19:25:14.542Z,12.60
2019-04-28T19:28:22.044Z,6.87
2019-04-28T19:30:47.908Z,6.63
2019-04-28T19:33:33.696Z,8.13
2019-04-28T19:36:19.455Z,9.43
2019-04-28T19:38:45.315Z,8.07
2019-04-28T19:41:31.098Z,7.10
2019-04-28T19:43:56.950Z,6.33
2019-04-28T19:46:22.824Z,7.47
2019-04-28T19:48:48.724Z,8.77
2019-04-28T19:54:02.129Z,10.90
2019-04-28T19:59:35.293Z,9.03
2019-04-28T20:02:21.434Z,8.03
2019-04-28T20:04:47.294Z,6.50
2019-04-28T20:07:13.209Z,7.00
2019-04-28T20:09:39.089Z,6.30
2019-04-28T20:12:04.968Z,6.17
2019-04-28T20:14:30.825Z,5.37
2019-04-28T20:16:56.663Z,5.20
2019-04-28T20:19:22.552Z,6.87
2019-04-28T20:21:48.386Z,5.43
2019-04-28T20:24:14.235Z,5.93
2019-04-28T20:26:40.124Z,5.87
2019-04-28T20:29:05.970Z,6.03
2019-04-28T20:31:31.849Z,7.10
2019-04-28T20:33:57.729Z,8.10
2019-04-28T20:36:43.473Z,6.00
2019-04-28T20:42:36.544Z,7.00
2019-04-28T20:45:44.013Z,7.13
2019-04-28T20:48:10.224Z,6.70
2019-04-28T20:50:36.064Z,5.67
2019-04-28T20:53:01.952Z,5.57
2019-04-28T20:55:27.836Z,6.00
2019-04-28T20:57:53.792Z,5.57
2019-04-28T21:00:19.780Z,5.03
2019-04-28T21:02:45.855Z,6.13
2019-04-28T21:05:11.816Z,9.00
2019-04-28T21:07:37.669Z,9.40
2019-04-28T21:10:45.143Z,10.20
2019-04-28T21:13:10.990Z,9.93
2019-04-28T21:15:36.936Z,8.27
2019-04-28T21:18:02.863Z,8.20
2019-04-28T21:20:28.825Z,7.30
2019-04-28T21:22:54.662Z,7.00
2019-04-28T21:25:20.515Z,8.10
2019-04-28T21:27:46.358Z,8.30
2019-04-28T21:30:12.307Z,7.63
2019-04-28T21:32:38.141Z,7.83
2019-04-28T21:35:03.990Z,8.83
2019-04-28T21:37:29.829Z,7.20
2019-04-28T21:39:55.655Z,7.90
2019-04-28T21:45:19.037Z,7.20
2019-04-28T21:47:44.895Z,7.90
2019-04-28T21:50:10.807Z,9.47
2019-04-28T21:52:36.682Z,9.03
2019-04-28T21:55:44.172Z,8.97
2019-04-28T21:58:10.953Z,11.20
2019-04-28T22:01:18.456Z,10.27
2019-04-28T22:03:44.304Z,9.00
2019-04-28T22:06:10.255Z,9.10
2019-04-28T22:08:36.085Z,9.77
2019-04-28T22:11:02.283Z,8.70
2019-04-28T22:13:28.159Z,7.83
2019-04-28T22:15:54.101Z,8.33
2019-04-28T22:18:19.952Z,8.13
2019-04-28T22:20:46.188Z,8.20
2019-04-28T22:23:52.030Z,8.50
2019-04-28T22:26:57.838Z,7.73
2019-04-28T22:29:43.561Z,7.53
2019-04-28T22:32:09.435Z,8.53
2019-04-28T22:34:35.290Z,5.73
2019-04-28T22:37:01.118Z,6.20
2019-04-28T22:39:26.996Z,6.40
2019-04-28T22:41:52.835Z,6.33
2019-04-28T22:44:18.673Z,7.27
2019-04-28T22:46:44.512Z,6.53
2019-04-28T22:49:10.674Z,6.23
2019-04-28T22:51:36.530Z,6.20
2019-04-28T22:54:44.012Z,5.90
2019-04-28T22:57:29.746Z,6.97
2019-04-28T23:02:43.058Z,7.23
2019-04-28T23:05:08.979Z,6.17
2019-04-28T23:07:34.928Z,6.90
2019-04-28T23:10:00.766Z,6.03
2019-04-28T23:12:26.591Z,5.87
2019-04-28T23:14:52.445Z,5.33
2019-04-28T23:25:53.570Z,4.93
2019-04-28T23:28:39.301Z,5.87
2019-04-28T23:31:05.257Z,6.33
2019-04-28T23:33:31.116Z,5.10
2019-04-28T23:35:56.935Z,4.80
2019-04-28T23:38:22.811Z,5.80
2019-04-28T23:43:55.883Z,5.20
2019-04-28T23:49:29.093Z,4.77
2019-04-28T23:52:36.574Z,5.00
2019-04-28T23:55:44.059Z,6.27
2019-04-28T23:58:09.903Z,5.33
